Sankuniki — JD2465 — position and weather

sailwx.info

Track history (hours):
 
Tides and Currents Weather Stations Pressure Air Temp Water Temp Dewpoint Dewpoint Depression Visibility Wind Speed Wind Dir Waves Ship Positions

Sankuniki

Last reported at 2018-Feb-14 09:06 UTC. Time now 2018-Feb-17 21:53 UTC.
Position N 34°34' E 136°60'.

Length 71 m; draft 4.8 m.

Type: Cargo ship. MMSI: 431000269.

Date/timePositionNaut miles runAvg speedWind from/ knotsBaromVisibWave heightAir tempDewpointWater temp
2018-Feb-14 09:06N 34°34' E 136°60'213.0
2018-Feb-14 08:58N 34°35' E 136°58'612.6
2018-Feb-14 08:30N 34°39' E 136°52'612.3
2018-Feb-14 08:00N 34°44' E 136°48'612.5
2018-Feb-14 07:30N 34°49' E 136°45'612.4
2018-Feb-14 07:01N 34°55' E 136°46'612.6
2018-Feb-14 06:30N 35°01' E 136°50'3 5.7
2018-Feb-14 06:00N 35°03' E 136°52'0 0.1
2018-Feb-14 05:31N 35°03' E 136°52'0 0.0
2018-Feb-14 05:01N 35°03' E 136°52'0 0.1
2018-Feb-14 04:30N 35°03' E 136°52'0 0.0
2018-Feb-14 04:00N 35°03' E 136°52'0 0.0
2018-Feb-14 03:30N 35°03' E 136°52'0 0.1
2018-Feb-14 03:00N 35°03' E 136°52'0 0.1
2018-Feb-14 02:30N 35°03' E 136°52'0 0.1
2018-Feb-14 02:00N 35°03' E 136°52'0 0.0
2018-Feb-14 01:30N 35°03' E 136°52'0 0.0
2018-Feb-14 01:00N 35°03' E 136°52'0 0.1
2018-Feb-14 00:31N 35°03' E 136°52'0 0.0
2018-Feb-14 00:00N 35°03' E 136°52'0 0.1
2018-Feb-13 23:31N 35°03' E 136°52'1 2.1
2018-Feb-13 23:00N 35°04' E 136°52'1 1.2
2018-Feb-13 22:29N 35°05' E 136°52'0 0.1
2018-Feb-13 22:01N 35°05' E 136°53'0 0.0
2018-Feb-13 21:30N 35°05' E 136°53'0 0.0
2018-Feb-13 21:00N 35°05' E 136°53'0 0.1
2018-Feb-13 20:30N 35°05' E 136°53'0 0.0
2018-Feb-13 20:00N 35°05' E 136°53'0 0.0
2018-Feb-13 19:31N 35°05' E 136°53'0 0.0
2018-Feb-13 19:00N 35°05' E 136°53'0 0.0
2018-Feb-13 18:30N 35°05' E 136°53'0 0.0
2018-Feb-13 18:00N 35°05' E 136°53'0 0.0
2018-Feb-13 17:30N 35°05' E 136°53'0 0.0
2018-Feb-13 17:00N 35°05' E 136°53'0 0.0
2018-Feb-13 16:30N 35°05' E 136°53'0 0.0
2018-Feb-13 16:00N 35°05' E 136°53'0 0.1
2018-Feb-13 15:30N 35°05' E 136°53'0 0.1
2018-Feb-13 15:00N 35°05' E 136°53'0 0.0
2018-Feb-13 14:30N 35°05' E 136°53'0 0.1
2018-Feb-13 14:01N 35°05' E 136°53'0 0.1
2018-Feb-13 13:30N 35°05' E 136°53'0 0.0
2018-Feb-13 13:00N 35°05' E 136°53'0 0.1
2018-Feb-13 12:30N 35°05' E 136°53'0 0.0
2018-Feb-13 12:00N 35°05' E 136°53'0 0.0
2018-Feb-13 11:30N 35°05' E 136°53'0 0.0
2018-Feb-13 11:00N 35°05' E 136°53'0 0.0
2018-Feb-13 10:30N 35°05' E 136°53'0 0.0
2018-Feb-13 10:00N 35°05' E 136°53'0 0.1
2018-Feb-13 09:30N 35°05' E 136°53'0 0.0
2018-Feb-13 09:00N 35°05' E 136°53'0 0.0
2018-Feb-13 08:30N 35°05' E 136°53'0 1.0
2018-Feb-13 08:00N 35°04' E 136°52'2 3.7
2018-Feb-13 07:31N 35°03' E 136°52'0 0.0
2018-Feb-13 07:00N 35°03' E 136°52'0 0.1
2018-Feb-13 06:30N 35°03' E 136°53'0 0.1
2018-Feb-13 06:00N 35°03' E 136°52'0 0.0
2018-Feb-13 05:30N 35°03' E 136°52'0 0.0
2018-Feb-13 05:00N 35°03' E 136°52'0 0.0
2018-Feb-13 04:30N 35°03' E 136°52'0 0.0
2018-Feb-13 04:00N 35°03' E 136°52'0 0.0
2018-Feb-13 03:30N 35°03' E 136°52'0 0.0
2018-Feb-13 03:00N 35°03' E 136°52'0 0.0
2018-Feb-13 02:31N 35°03' E 136°52'0 0.0
2018-Feb-13 02:00N 35°03' E 136°52'0 0.0
2018-Feb-13 01:30N 35°03' E 136°52'0 0.1
2018-Feb-13 01:01N 35°03' E 136°53'0 0.1
2018-Feb-13 00:30N 35°03' E 136°52'0 0.0
2018-Feb-13 00:00N 35°03' E 136°52'0 0.0
2018-Feb-12 23:30N 35°03' E 136°52'0 0.0
2018-Feb-12 23:00N 35°03' E 136°52'0 0.5
2018-Feb-12 22:30N 35°03' E 136°52'2 4.1
2018-Feb-12 22:01N 35°05' E 136°52'0 0.0
2018-Feb-12 21:29N 35°05' E 136°52'0 0.0
2018-Feb-12 21:00N 35°05' E 136°52'0 0.0
2018-Feb-12 20:30N 35°05' E 136°52'0 0.0
2018-Feb-12 20:00N 35°05' E 136°52'0 0.0
2018-Feb-12 19:30N 35°05' E 136°52'0 0.0
2018-Feb-12 19:01N 35°05' E 136°52'0 0.0
2018-Feb-12 18:30N 35°05' E 136°52'0 0.0
2018-Feb-12 18:00N 35°05' E 136°52'0 0.0
2018-Feb-12 17:30N 35°05' E 136°52'0 0.0
2018-Feb-12 17:00N 35°05' E 136°52'0 0.0
2018-Feb-12 16:30N 35°05' E 136°52'0 0.0
2018-Feb-12 16:00N 35°05' E 136°52'0 0.0
2018-Feb-12 15:31N 35°05' E 136°52'0 0.0
2018-Feb-12 14:59N 35°05' E 136°52'0 0.0
2018-Feb-12 14:31N 35°05' E 136°52'0 0.0
2018-Feb-12 14:00N 35°05' E 136°52'0 0.0
2018-Feb-12 13:29N 35°05' E 136°52'0 0.0
2018-Feb-12 13:01N 35°05' E 136°52'0 0.0
2018-Feb-12 12:30N 35°05' E 136°52'0 0.0
2018-Feb-12 12:00N 35°05' E 136°52'0 0.0
2018-Feb-12 11:29N 35°05' E 136°52'0 0.0
2018-Feb-12 11:00N 35°05' E 136°52'0 0.0
2018-Feb-12 10:30N 35°05' E 136°52'0 0.0
2018-Feb-12 10:00N 35°05' E 136°52'0 0.0
2018-Feb-12 09:30N 35°05' E 136°52'0 0.0
2018-Feb-12 08:58N 35°05' E 136°52'0 0.0
2018-Feb-12 08:30N 35°05' E 136°52'0 0.0
2018-Feb-12 08:00N 35°05' E 136°52'0 0.0
2018-Feb-12 07:30N 35°05' E 136°52'0 0.0
2018-Feb-12 07:00N 35°05' E 136°52'0 0.0
2018-Feb-12 06:30N 35°05' E 136°52'0 0.0
2018-Feb-12 06:00N 35°05' E 136°52'0 0.0
2018-Feb-12 05:30N 35°05' E 136°52'0 0.0
2018-Feb-12 05:01N 35°05' E 136°52'0 0.0
2018-Feb-12 04:30N 35°05' E 136°52'0 0.0
2018-Feb-12 04:00N 35°05' E 136°52'0 0.0
2018-Feb-12 03:30N 35°05' E 136°52'0 0.0
2018-Feb-12 03:00N 35°05' E 136°52'0 0.0
2018-Feb-12 02:30N 35°05' E 136°52'0 0.0
2018-Feb-12 02:00N 35°05' E 136°52'0 0.0
2018-Feb-12 01:30N 35°05' E 136°52'0 0.0
2018-Feb-12 00:58N 35°05' E 136°52'0 0.0
2018-Feb-12 00:30N 35°05' E 136°52'0 0.0
2018-Feb-12 00:01N 35°05' E 136°52'0 0.0
2018-Feb-11 23:30N 35°05' E 136°52'0 0.0
2018-Feb-11 23:00N 35°05' E 136°52'0 0.0
2018-Feb-11 22:30N 35°05' E 136°52'0 0.0
2018-Feb-11 22:01N 35°05' E 136°52'0 0.0
2018-Feb-11 21:30N 35°05' E 136°52'0 0.3
2018-Feb-11 21:00N 35°05' E 136°52'0 0.0
2018-Feb-11 20:30N 35°05' E 136°52'0 0.0
2018-Feb-11 20:01N 35°05' E 136°52'0 0.0
2018-Feb-11 19:31N 35°05' E 136°52'0 0.0
2018-Feb-11 19:00N 35°05' E 136°52'0 0.0
2018-Feb-11 18:30N 35°05' E 136°52'0 0.0
2018-Feb-11 18:00N 35°05' E 136°52'0 0.0
2018-Feb-11 17:30N 35°05' E 136°52'0 0.0
2018-Feb-11 17:01N 35°05' E 136°52'0 0.0
2018-Feb-11 16:30N 35°05' E 136°52'0 0.0
2018-Feb-11 16:00N 35°05' E 136°52'0 0.0
2018-Feb-11 15:31N 35°05' E 136°52'0 0.0
2018-Feb-11 15:01N 35°05' E 136°52'0 0.0
2018-Feb-11 14:30N 35°05' E 136°52'0 0.0
2018-Feb-11 14:00N 35°05' E 136°52'0 0.0
2018-Feb-11 13:31N 35°05' E 136°52'0 0.0
2018-Feb-11 13:00N 35°05' E 136°52'0 0.0
2018-Feb-11 12:30N 35°05' E 136°52'0 0.0
2018-Feb-11 12:00N 35°05' E 136°52'0 0.0
2018-Feb-11 11:30N 35°05' E 136°52'0 0.0
2018-Feb-11 11:00N 35°05' E 136°52'0 0.0
2018-Feb-11 10:30N 35°05' E 136°52'0 0.0
2018-Feb-11 10:00N 35°05' E 136°52'0 0.0
2018-Feb-11 09:30N 35°05' E 136°52'0 0.0
2018-Feb-11 09:01N 35°05' E 136°52'0 0.0
2018-Feb-11 08:30N 35°05' E 136°52'0 0.0
2018-Feb-11 08:00N 35°05' E 136°52'0 0.0
2018-Feb-11 07:30N 35°05' E 136°52'0 0.0
2018-Feb-11 07:00N 35°05' E 136°52'0 0.0
2018-Feb-11 06:30N 35°05' E 136°52'0 0.0
2018-Feb-11 06:00N 35°05' E 136°52'0 0.0
2018-Feb-11 05:30N 35°05' E 136°52'0 0.0
2018-Feb-11 04:59N 35°05' E 136°52'0 0.0
2018-Feb-11 04:30N 35°05' E 136°52'0 0.0
2018-Feb-11 04:01N 35°05' E 136°52'0 0.0
2018-Feb-11 03:30N 35°05' E 136°52'0 0.0
2018-Feb-11 03:00N 35°05' E 136°52'0 0.0
2018-Feb-11 02:31N 35°05' E 136°52'0 0.0
2018-Feb-11 02:00N 35°05' E 136°52'0 0.0
2018-Feb-11 01:30N 35°05' E 136°52'0 0.0
2018-Feb-11 01:00N 35°05' E 136°52'0 0.0
2018-Feb-11 00:30N 35°05' E 136°52'0 0.0
2018-Feb-11 00:00N 35°05' E 136°52'0 0.0
2018-Feb-10 23:30N 35°05' E 136°52'0 0.0
2018-Feb-10 23:00N 35°05' E 136°52'1 2.2
2018-Feb-10 22:30N 35°04' E 136°52'510.9
2018-Feb-10 22:00N 34°59' E 136°49'510.2
2018-Feb-10 21:30N 34°54' E 136°47'510.7
2018-Feb-10 21:00N 34°48' E 136°48'610.8
2018-Feb-10 20:29N 34°43' E 136°50'7110.9
2018-Feb-10 13:59N 34°33' E 138°15'3211.9
2018-Feb-10 11:16N 34°35' E 138°55'3 9.8
2018-Feb-10 11:00N 34°36' E 138°58'910.6
2018-Feb-10 10:08N 34°41' E 139°07'24 9.8
2018-Feb-10 07:40N 34°50' E 139°35'  
Track history (hours):
 
Tides and Currents Weather Stations Pressure Air Temp Water Temp Dewpoint Dewpoint Depression Visibility Wind Speed Wind Dir Waves Ship Positions

Sankuniki

Last reported at 2018-Feb-14 09:06 UTC. Time now 2018-Feb-17 21:53 UTC.
Position N 34°34' E 136°60'.

Length 71 m; draft 4.8 m.

Type: Cargo ship. MMSI: 431000269.

Date/timePositionNaut miles runAvg speedWind from/ knotsBaromVisibWave heightAir tempDewpointWater temp
2018-Feb-14 09:06N 34°34' E 136°60'213.0
2018-Feb-14 08:58N 34°35' E 136°58'612.6
2018-Feb-14 08:30N 34°39' E 136°52'612.3
2018-Feb-14 08:00N 34°44' E 136°48'612.5
2018-Feb-14 07:30N 34°49' E 136°45'612.4
2018-Feb-14 07:01N 34°55' E 136°46'612.6
2018-Feb-14 06:30N 35°01' E 136°50'3 5.7
2018-Feb-14 06:00N 35°03' E 136°52'0 0.1
2018-Feb-14 05:31N 35°03' E 136°52'0 0.0
2018-Feb-14 05:01N 35°03' E 136°52'0 0.1
2018-Feb-14 04:30N 35°03' E 136°52'0 0.0
2018-Feb-14 04:00N 35°03' E 136°52'0 0.0
2018-Feb-14 03:30N 35°03' E 136°52'0 0.1
2018-Feb-14 03:00N 35°03' E 136°52'0 0.1
2018-Feb-14 02:30N 35°03' E 136°52'0 0.1
2018-Feb-14 02:00N 35°03' E 136°52'0 0.0
2018-Feb-14 01:30N 35°03' E 136°52'0 0.0
2018-Feb-14 01:00N 35°03' E 136°52'0 0.1
2018-Feb-14 00:31N 35°03' E 136°52'0 0.0
2018-Feb-14 00:00N 35°03' E 136°52'0 0.1
2018-Feb-13 23:31N 35°03' E 136°52'1 2.1
2018-Feb-13 23:00N 35°04' E 136°52'1 1.2
2018-Feb-13 22:29N 35°05' E 136°52'0 0.1
2018-Feb-13 22:01N 35°05' E 136°53'0 0.0
2018-Feb-13 21:30N 35°05' E 136°53'0 0.0
2018-Feb-13 21:00N 35°05' E 136°53'0 0.1
2018-Feb-13 20:30N 35°05' E 136°53'0 0.0
2018-Feb-13 20:00N 35°05' E 136°53'0 0.0
2018-Feb-13 19:31N 35°05' E 136°53'0 0.0
2018-Feb-13 19:00N 35°05' E 136°53'0 0.0
2018-Feb-13 18:30N 35°05' E 136°53'0 0.0
2018-Feb-13 18:00N 35°05' E 136°53'0 0.0
2018-Feb-13 17:30N 35°05' E 136°53'0 0.0
2018-Feb-13 17:00N 35°05' E 136°53'0 0.0
2018-Feb-13 16:30N 35°05' E 136°53'0 0.0
2018-Feb-13 16:00N 35°05' E 136°53'0 0.1
2018-Feb-13 15:30N 35°05' E 136°53'0 0.1
2018-Feb-13 15:00N 35°05' E 136°53'0 0.0
2018-Feb-13 14:30N 35°05' E 136°53'0 0.1
2018-Feb-13 14:01N 35°05' E 136°53'0 0.1
2018-Feb-13 13:30N 35°05' E 136°53'0 0.0
2018-Feb-13 13:00N 35°05' E 136°53'0 0.1
2018-Feb-13 12:30N 35°05' E 136°53'0 0.0
2018-Feb-13 12:00N 35°05' E 136°53'0 0.0
2018-Feb-13 11:30N 35°05' E 136°53'0 0.0
2018-Feb-13 11:00N 35°05' E 136°53'0 0.0
2018-Feb-13 10:30N 35°05' E 136°53'0 0.0
2018-Feb-13 10:00N 35°05' E 136°53'0 0.1
2018-Feb-13 09:30N 35°05' E 136°53'0 0.0
2018-Feb-13 09:00N 35°05' E 136°53'0 0.0
2018-Feb-13 08:30N 35°05' E 136°53'0 1.0
2018-Feb-13 08:00N 35°04' E 136°52'2 3.7
2018-Feb-13 07:31N 35°03' E 136°52'0 0.0
2018-Feb-13 07:00N 35°03' E 136°52'0 0.1
2018-Feb-13 06:30N 35°03' E 136°53'0 0.1
2018-Feb-13 06:00N 35°03' E 136°52'0 0.0
2018-Feb-13 05:30N 35°03' E 136°52'0 0.0
2018-Feb-13 05:00N 35°03' E 136°52'0 0.0
2018-Feb-13 04:30N 35°03' E 136°52'0 0.0
2018-Feb-13 04:00N 35°03' E 136°52'0 0.0
2018-Feb-13 03:30N 35°03' E 136°52'0 0.0
2018-Feb-13 03:00N 35°03' E 136°52'0 0.0
2018-Feb-13 02:31N 35°03' E 136°52'0 0.0
2018-Feb-13 02:00N 35°03' E 136°52'0 0.0
2018-Feb-13 01:30N 35°03' E 136°52'0 0.1
2018-Feb-13 01:01N 35°03' E 136°53'0 0.1
2018-Feb-13 00:30N 35°03' E 136°52'0 0.0
2018-Feb-13 00:00N 35°03' E 136°52'0 0.0
2018-Feb-12 23:30N 35°03' E 136°52'0 0.0
2018-Feb-12 23:00N 35°03' E 136°52'0 0.5
2018-Feb-12 22:30N 35°03' E 136°52'2 4.1
2018-Feb-12 22:01N 35°05' E 136°52'0 0.0
2018-Feb-12 21:29N 35°05' E 136°52'0 0.0
2018-Feb-12 21:00N 35°05' E 136°52'0 0.0
2018-Feb-12 20:30N 35°05' E 136°52'0 0.0
2018-Feb-12 20:00N 35°05' E 136°52'0 0.0
2018-Feb-12 19:30N 35°05' E 136°52'0 0.0
2018-Feb-12 19:01N 35°05' E 136°52'0 0.0
2018-Feb-12 18:30N 35°05' E 136°52'0 0.0
2018-Feb-12 18:00N 35°05' E 136°52'0 0.0
2018-Feb-12 17:30N 35°05' E 136°52'0 0.0
2018-Feb-12 17:00N 35°05' E 136°52'0 0.0
2018-Feb-12 16:30N 35°05' E 136°52'0 0.0
2018-Feb-12 16:00N 35°05' E 136°52'0 0.0
2018-Feb-12 15:31N 35°05' E 136°52'0 0.0
2018-Feb-12 14:59N 35°05' E 136°52'0 0.0
2018-Feb-12 14:31N 35°05' E 136°52'0 0.0
2018-Feb-12 14:00N 35°05' E 136°52'0 0.0
2018-Feb-12 13:29N 35°05' E 136°52'0 0.0
2018-Feb-12 13:01N 35°05' E 136°52'0 0.0
2018-Feb-12 12:30N 35°05' E 136°52'0 0.0
2018-Feb-12 12:00N 35°05' E 136°52'0 0.0
2018-Feb-12 11:29N 35°05' E 136°52'0 0.0
2018-Feb-12 11:00N 35°05' E 136°52'0 0.0
2018-Feb-12 10:30N 35°05' E 136°52'0 0.0
2018-Feb-12 10:00N 35°05' E 136°52'0 0.0
2018-Feb-12 09:30N 35°05' E 136°52'0 0.0
2018-Feb-12 08:58N 35°05' E 136°52'0 0.0
2018-Feb-12 08:30N 35°05' E 136°52'0 0.0
2018-Feb-12 08:00N 35°05' E 136°52'0 0.0
2018-Feb-12 07:30N 35°05' E 136°52'0 0.0
2018-Feb-12 07:00N 35°05' E 136°52'0 0.0
2018-Feb-12 06:30N 35°05' E 136°52'0 0.0
2018-Feb-12 06:00N 35°05' E 136°52'0 0.0
2018-Feb-12 05:30N 35°05' E 136°52'0 0.0
2018-Feb-12 05:01N 35°05' E 136°52'0 0.0
2018-Feb-12 04:30N 35°05' E 136°52'0 0.0
2018-Feb-12 04:00N 35°05' E 136°52'0 0.0
2018-Feb-12 03:30N 35°05' E 136°52'0 0.0
2018-Feb-12 03:00N 35°05' E 136°52'0 0.0
2018-Feb-12 02:30N 35°05' E 136°52'0 0.0
2018-Feb-12 02:00N 35°05' E 136°52'0 0.0
2018-Feb-12 01:30N 35°05' E 136°52'0 0.0
2018-Feb-12 00:58N 35°05' E 136°52'0 0.0
2018-Feb-12 00:30N 35°05' E 136°52'0 0.0
2018-Feb-12 00:01N 35°05' E 136°52'0 0.0
2018-Feb-11 23:30N 35°05' E 136°52'0 0.0
2018-Feb-11 23:00N 35°05' E 136°52'0 0.0
2018-Feb-11 22:30N 35°05' E 136°52'0 0.0
2018-Feb-11 22:01N 35°05' E 136°52'0 0.0
2018-Feb-11 21:30N 35°05' E 136°52'0 0.3
2018-Feb-11 21:00N 35°05' E 136°52'0 0.0
2018-Feb-11 20:30N 35°05' E 136°52'0 0.0
2018-Feb-11 20:01N 35°05' E 136°52'0 0.0
2018-Feb-11 19:31N 35°05' E 136°52'0 0.0
2018-Feb-11 19:00N 35°05' E 136°52'0 0.0
2018-Feb-11 18:30N 35°05' E 136°52'0 0.0
2018-Feb-11 18:00N 35°05' E 136°52'0 0.0
2018-Feb-11 17:30N 35°05' E 136°52'0 0.0
2018-Feb-11 17:01N 35°05' E 136°52'0 0.0
2018-Feb-11 16:30N 35°05' E 136°52'0 0.0
2018-Feb-11 16:00N 35°05' E 136°52'0 0.0
2018-Feb-11 15:31N 35°05' E 136°52'0 0.0
2018-Feb-11 15:01N 35°05' E 136°52'0 0.0
2018-Feb-11 14:30N 35°05' E 136°52'0 0.0
2018-Feb-11 14:00N 35°05' E 136°52'0 0.0
2018-Feb-11 13:31N 35°05' E 136°52'0 0.0
2018-Feb-11 13:00N 35°05' E 136°52'0 0.0
2018-Feb-11 12:30N 35°05' E 136°52'0 0.0
2018-Feb-11 12:00N 35°05' E 136°52'0 0.0
2018-Feb-11 11:30N 35°05' E 136°52'0 0.0
2018-Feb-11 11:00N 35°05' E 136°52'0 0.0
2018-Feb-11 10:30N 35°05' E 136°52'0 0.0
2018-Feb-11 10:00N 35°05' E 136°52'0 0.0
2018-Feb-11 09:30N 35°05' E 136°52'0 0.0
2018-Feb-11 09:01N 35°05' E 136°52'0 0.0
2018-Feb-11 08:30N 35°05' E 136°52'0 0.0
2018-Feb-11 08:00N 35°05' E 136°52'0 0.0
2018-Feb-11 07:30N 35°05' E 136°52'0 0.0
2018-Feb-11 07:00N 35°05' E 136°52'0 0.0
2018-Feb-11 06:30N 35°05' E 136°52'0 0.0
2018-Feb-11 06:00N 35°05' E 136°52'0 0.0
2018-Feb-11 05:30N 35°05' E 136°52'0 0.0
2018-Feb-11 04:59N 35°05' E 136°52'0 0.0
2018-Feb-11 04:30N 35°05' E 136°52'0 0.0
2018-Feb-11 04:01N 35°05' E 136°52'0 0.0
2018-Feb-11 03:30N 35°05' E 136°52'0 0.0
2018-Feb-11 03:00N 35°05' E 136°52'0 0.0
2018-Feb-11 02:31N 35°05' E 136°52'0 0.0
2018-Feb-11 02:00N 35°05' E 136°52'0 0.0
2018-Feb-11 01:30N 35°05' E 136°52'0 0.0
2018-Feb-11 01:00N 35°05' E 136°52'0 0.0
2018-Feb-11 00:30N 35°05' E 136°52'0 0.0
2018-Feb-11 00:00N 35°05' E 136°52'0 0.0
2018-Feb-10 23:30N 35°05' E 136°52'0 0.0
2018-Feb-10 23:00N 35°05' E 136°52'1 2.2
2018-Feb-10 22:30N 35°04' E 136°52'510.9
2018-Feb-10 22:00N 34°59' E 136°49'510.2
2018-Feb-10 21:30N 34°54' E 136°47'510.7
2018-Feb-10 21:00N 34°48' E 136°48'610.8
2018-Feb-10 20:29N 34°43' E 136°50'7110.9
2018-Feb-10 13:59N 34°33' E 138°15'3211.9
2018-Feb-10 11:16N 34°35' E 138°55'3 9.8
2018-Feb-10 11:00N 34°36' E 138°58'910.6
2018-Feb-10 10:08N 34°41' E 139°07'24 9.8
2018-Feb-10 07:40N 34°50' E 139°35'  

Dump ship's entire track history